Oregon City, California
Current Conditions -  °F | °C
As of 10:53 AM on Saturday 25 Oct 2014 (Local Time) from KOVE Reporting Station
Broken Clouds Broken Clouds  
Wind Chill: 61°   Ceiling: 2000
Heat Index: 61°   Visibility: 10mi
Dew Point: 54°   Wind: 17mph
Humidity: 78%   Direction: 140°SE
Pressure: 30.01"   Gusts: 24mph
Location:  39.5324°N, 121.648°W
Report Text: KOVE 251753Z AUTO 14015G21KT 10SM BKN020 16/12 A3001 RMK AO2 SLP164 60014 T01610122 10189 20139 50018
Loading
Personal Weather Stations






























Interactive Weather Map
Tropical Storm Tracking
New forecast layout! Learn more

10-Day Weather Forecast

Advertisements
Track Severe Weather on mobile